sensor_id;sensor_type;location;lat;lon;timestamp;temperature;humidity
75961;SHT30;64644;48.914;2.254;2023-06-14T00:00:04;24.54;47.75
75961;SHT30;64644;48.914;2.254;2023-06-14T00:02:30;24.51;47.48
75961;SHT30;64644;48.914;2.254;2023-06-14T00:04:56;24.52;48.07
75961;SHT30;64644;48.914;2.254;2023-06-14T00:07:33;24.48;48.14
75961;SHT30;64644;48.914;2.254;2023-06-14T00:09:59;24.47;47.65
75961;SHT30;64644;48.914;2.254;2023-06-14T00:12:24;24.44;47.70
75961;SHT30;64644;48.914;2.254;2023-06-14T00:14:50;24.42;47.81
75961;SHT30;64644;48.914;2.254;2023-06-14T00:17:15;24.39;47.59
75961;SHT30;64644;48.914;2.254;2023-06-14T00:19:42;24.37;48.13
75961;SHT30;64644;48.914;2.254;2023-06-14T00:22:07;24.37;48.01
75961;SHT30;64644;48.914;2.254;2023-06-14T00:24:32;24.32;48.03
75961;SHT30;64644;48.914;2.254;2023-06-14T00:26:58;24.32;47.77
75961;SHT30;64644;48.914;2.254;2023-06-14T00:29:23;24.28;47.37
75961;SHT30;64644;48.914;2.254;2023-06-14T00:31:48;24.22;47.49
75961;SHT30;64644;48.914;2.254;2023-06-14T00:34:14;24.21;47.23
75961;SHT30;64644;48.914;2.254;2023-06-14T00:36:40;24.18;47.06
75961;SHT30;64644;48.914;2.254;2023-06-14T00:39:05;24.16;47.29
75961;SHT30;64644;48.914;2.254;2023-06-14T00:41:30;24.13;47.12
75961;SHT30;64644;48.914;2.254;2023-06-14T00:43:56;24.09;47.29
75961;SHT30;64644;48.914;2.254;2023-06-14T00:46:22;24.04;47.43
75961;SHT30;64644;48.914;2.254;2023-06-14T00:48:48;24.03;47.56
75961;SHT30;64644;48.914;2.254;2023-06-14T00:51:14;24.00;47.62
75961;SHT30;64644;48.914;2.254;2023-06-14T00:53:39;23.97;48.20
75961;SHT30;64644;48.914;2.254;2023-06-14T00:56:06;23.94;48.33
75961;SHT30;64644;48.914;2.254;2023-06-14T00:58:32;23.94;48.17
75961;SHT30;64644;48.914;2.254;2023-06-14T01:00:57;23.92;48.12
75961;SHT30;64644;48.914;2.254;2023-06-14T01:03:23;23.89;48.33
75961;SHT30;64644;48.914;2.254;2023-06-14T01:05:56;23.84;48.46
75961;SHT30;64644;48.914;2.254;2023-06-14T01:08:49;23.82;48.40
75961;SHT30;64644;48.914;2.254;2023-06-14T01:11:22;23.80;48.27
75961;SHT30;64644;48.914;2.254;2023-06-14T01:13:51;23.76;48.73
75961;SHT30;64644;48.914;2.254;2023-06-14T01:16:17;23.76;48.56
75961;SHT30;64644;48.914;2.254;2023-06-14T01:18:43;23.72;48.18
75961;SHT30;64644;48.914;2.254;2023-06-14T01:21:23;23.72;48.27
75961;SHT30;64644;48.914;2.254;2023-06-14T01:23:49;23.69;48.18
75961;SHT30;64644;48.914;2.254;2023-06-14T01:26:19;23.67;48.07
75961;SHT30;64644;48.914;2.254;2023-06-14T01:28:45;23.66;48.16
75961;SHT30;64644;48.914;2.254;2023-06-14T01:31:17;23.62;47.95
75961;SHT30;64644;48.914;2.254;2023-06-14T01:33:43;23.59;47.80
75961;SHT30;64644;48.914;2.254;2023-06-14T01:36:09;23.59;48.10
75961;SHT30;64644;48.914;2.254;2023-06-14T01:38:36;23.55;47.82
75961;SHT30;64644;48.914;2.254;2023-06-14T01:41:03;23.51;47.97
75961;SHT30;64644;48.914;2.254;2023-06-14T01:43:30;23.49;47.92
75961;SHT30;64644;48.914;2.254;2023-06-14T01:45:56;23.47;47.93
75961;SHT30;64644;48.914;2.254;2023-06-14T01:48:22;23.44;47.90
75961;SHT30;64644;48.914;2.254;2023-06-14T01:50:52;23.44;47.88
75961;SHT30;64644;48.914;2.254;2023-06-14T01:53:17;23.41;47.95
75961;SHT30;64644;48.914;2.254;2023-06-14T01:55:43;23.37;48.20
75961;SHT30;64644;48.914;2.254;2023-06-14T01:58:10;23.34;48.07
75961;SHT30;64644;48.914;2.254;2023-06-14T02:00:36;23.32;48.36
75961;SHT30;64644;48.914;2.254;2023-06-14T02:03:01;23.28;48.38
75961;SHT30;64644;48.914;2.254;2023-06-14T02:05:29;23.31;48.37
75961;SHT30;64644;48.914;2.254;2023-06-14T02:07:55;23.27;48.47
75961;SHT30;64644;48.914;2.254;2023-06-14T02:10:20;23.27;48.69
75961;SHT30;64644;48.914;2.254;2023-06-14T02:12:46;23.25;49.16
75961;SHT30;64644;48.914;2.254;2023-06-14T02:15:11;23.20;49.73
75961;SHT30;64644;48.914;2.254;2023-06-14T02:17:42;23.21;49.89
75961;SHT30;64644;48.914;2.254;2023-06-14T02:20:08;23.18;50.20
75961;SHT30;64644;48.914;2.254;2023-06-14T02:22:34;23.14;50.48
75961;SHT30;64644;48.914;2.254;2023-06-14T02:25:01;23.10;50.89
75961;SHT30;64644;48.914;2.254;2023-06-14T02:27:26;23.08;51.07
75961;SHT30;64644;48.914;2.254;2023-06-14T02:29:52;23.04;51.35
75961;SHT30;64644;48.914;2.254;2023-06-14T02:32:17;23.02;51.55
75961;SHT30;64644;48.914;2.254;2023-06-14T02:34:42;22.99;51.77
75961;SHT30;64644;48.914;2.254;2023-06-14T02:37:08;22.99;51.30
75961;SHT30;64644;48.914;2.254;2023-06-14T02:39:34;22.90;51.46
75961;SHT30;64644;48.914;2.254;2023-06-14T02:41:59;22.86;51.78
75961;SHT30;64644;48.914;2.254;2023-06-14T02:44:26;22.87;52.04
75961;SHT30;64644;48.914;2.254;2023-06-14T02:46:53;22.85;52.20
75961;SHT30;64644;48.914;2.254;2023-06-14T02:49:18;22.82;52.24
75961;SHT30;64644;48.914;2.254;2023-06-14T02:51:44;22.80;52.35
75961;SHT30;64644;48.914;2.254;2023-06-14T02:54:09;22.76;52.53
75961;SHT30;64644;48.914;2.254;2023-06-14T02:56:35;22.72;52.42
75961;SHT30;64644;48.914;2.254;2023-06-14T02:59:01;22.68;52.57
75961;SHT30;64644;48.914;2.254;2023-06-14T03:01:27;22.66;52.69
75961;SHT30;64644;48.914;2.254;2023-06-14T03:03:58;22.58;52.98
75961;SHT30;64644;48.914;2.254;2023-06-14T03:06:24;22.56;53.28
75961;SHT30;64644;48.914;2.254;2023-06-14T03:08:50;22.55;53.08
75961;SHT30;64644;48.914;2.254;2023-06-14T03:11:15;22.51;53.09
75961;SHT30;64644;48.914;2.254;2023-06-14T03:13:42;22.51;53.17
75961;SHT30;64644;48.914;2.254;2023-06-14T03:16:09;22.48;53.09
75961;SHT30;64644;48.914;2.254;2023-06-14T03:18:34;22.48;53.08
75961;SHT30;64644;48.914;2.254;2023-06-14T03:21:03;22.48;53.19
75961;SHT30;64644;48.914;2.254;2023-06-14T03:23:29;22.49;53.41
75961;SHT30;64644;48.914;2.254;2023-06-14T03:25:54;22.47;53.33
75961;SHT30;64644;48.914;2.254;2023-06-14T03:28:21;22.45;53.51
75961;SHT30;64644;48.914;2.254;2023-06-14T03:30:46;22.45;53.51
75961;SHT30;64644;48.914;2.254;2023-06-14T03:33:11;22.41;53.60
75961;SHT30;64644;48.914;2.254;2023-06-14T03:35:37;22.40;53.76
75961;SHT30;64644;48.914;2.254;2023-06-14T03:38:02;22.42;53.79
75961;SHT30;64644;48.914;2.254;2023-06-14T03:40:29;22.40;53.87
75961;SHT30;64644;48.914;2.254;2023-06-14T03:42:54;22.37;53.80
75961;SHT30;64644;48.914;2.254;2023-06-14T03:45:20;22.35;53.78
75961;SHT30;64644;48.914;2.254;2023-06-14T03:47:46;22.31;53.68
75961;SHT30;64644;48.914;2.254;2023-06-14T03:50:12;22.30;53.83
75961;SHT30;64644;48.914;2.254;2023-06-14T03:52:37;22.30;53.85
75961;SHT30;64644;48.914;2.254;2023-06-14T03:55:03;22.27;53.94
75961;SHT30;64644;48.914;2.254;2023-06-14T03:57:29;22.27;53.93
75961;SHT30;64644;48.914;2.254;2023-06-14T03:59:55;22.27;53.80
75961;SHT30;64644;48.914;2.254;2023-06-14T04:02:20;22.28;53.86
75961;SHT30;64644;48.914;2.254;2023-06-14T04:04:47;22.28;53.84
75961;SHT30;64644;48.914;2.254;2023-06-14T04:07:14;22.27;54.07
75961;SHT30;64644;48.914;2.254;2023-06-14T04:09:41;22.28;54.13
75961;SHT30;64644;48.914;2.254;2023-06-14T04:12:07;22.27;53.92
75961;SHT30;64644;48.914;2.254;2023-06-14T04:14:34;22.25;53.79
75961;SHT30;64644;48.914;2.254;2023-06-14T04:17:00;22.22;53.91
75961;SHT30;64644;48.914;2.254;2023-06-14T04:19:25;22.22;54.01
75961;SHT30;64644;48.914;2.254;2023-06-14T04:21:50;22.21;53.87
75961;SHT30;64644;48.914;2.254;2023-06-14T04:24:16;22.18;54.08
75961;SHT30;64644;48.914;2.254;2023-06-14T04:26:45;22.17;53.89
75961;SHT30;64644;48.914;2.254;2023-06-14T04:29:13;22.15;54.11
75961;SHT30;64644;48.914;2.254;2023-06-14T04:31:41;22.15;54.22
75961;SHT30;64644;48.914;2.254;2023-06-14T04:34:07;22.13;54.44
75961;SHT30;64644;48.914;2.254;2023-06-14T04:36:33;22.11;54.58
75961;SHT30;64644;48.914;2.254;2023-06-14T04:39:00;22.10;54.88
75961;SHT30;64644;48.914;2.254;2023-06-14T04:41:26;22.08;54.75
75961;SHT30;64644;48.914;2.254;2023-06-14T04:43:55;22.08;54.65
75961;SHT30;64644;48.914;2.254;2023-06-14T04:46:22;22.07;54.75
75961;SHT30;64644;48.914;2.254;2023-06-14T04:48:47;22.04;54.97
75961;SHT30;64644;48.914;2.254;2023-06-14T04:51:15;22.06;55.08
75961;SHT30;64644;48.914;2.254;2023-06-14T04:53:41;22.01;55.20
75961;SHT30;64644;48.914;2.254;2023-06-14T04:56:07;22.03;55.45
75961;SHT30;64644;48.914;2.254;2023-06-14T04:58:32;22.03;55.37
75961;SHT30;64644;48.914;2.254;2023-06-14T05:00:57;22.03;55.41
75961;SHT30;64644;48.914;2.254;2023-06-14T05:03:24;22.00;55.57
75961;SHT30;64644;48.914;2.254;2023-06-14T05:05:50;22.01;55.38
75961;SHT30;64644;48.914;2.254;2023-06-14T05:08:16;22.03;55.19
75961;SHT30;64644;48.914;2.254;2023-06-14T05:10:41;22.01;54.64
75961;SHT30;64644;48.914;2.254;2023-06-14T05:13:07;21.94;54.35
75961;SHT30;64644;48.914;2.254;2023-06-14T05:15:33;21.86;54.58
75961;SHT30;64644;48.914;2.254;2023-06-14T05:17:58;21.85;55.20
75961;SHT30;64644;48.914;2.254;2023-06-14T05:20:24;21.86;55.32
75961;SHT30;64644;48.914;2.254;2023-06-14T05:22:53;21.86;55.34
75961;SHT30;64644;48.914;2.254;2023-06-14T05:25:19;21.89;54.87
75961;SHT30;64644;48.914;2.254;2023-06-14T05:27:46;21.85;54.81
75961;SHT30;64644;48.914;2.254;2023-06-14T05:30:12;21.83;55.11
75961;SHT30;64644;48.914;2.254;2023-06-14T05:32:38;21.89;55.31
75961;SHT30;64644;48.914;2.254;2023-06-14T05:35:03;21.90;55.10
75961;SHT30;64644;48.914;2.254;2023-06-14T05:37:29;21.93;54.48
75961;SHT30;64644;48.914;2.254;2023-06-14T05:39:56;21.97;54.63
75961;SHT30;64644;48.914;2.254;2023-06-14T05:42:21;22.00;54.88
75961;SHT30;64644;48.914;2.254;2023-06-14T05:44:46;22.01;55.16
75961;SHT30;64644;48.914;2.254;2023-06-14T05:47:12;22.04;55.24
75961;SHT30;64644;48.914;2.254;2023-06-14T05:49:37;22.07;55.21
75961;SHT30;64644;48.914;2.254;2023-06-14T05:52:03;22.11;55.19
75961;SHT30;64644;48.914;2.254;2023-06-14T05:54:28;22.17;55.39
75961;SHT30;64644;48.914;2.254;2023-06-14T05:56:53;22.22;54.94
75961;SHT30;64644;48.914;2.254;2023-06-14T05:59:19;22.27;55.19
75961;SHT30;64644;48.914;2.254;2023-06-14T06:01:45;22.31;54.50
75961;SHT30;64644;48.914;2.254;2023-06-14T06:04:11;22.32;54.58
75961;SHT30;64644;48.914;2.254;2023-06-14T06:06:36;22.40;54.82
75961;SHT30;64644;48.914;2.254;2023-06-14T06:09:02;22.44;54.77
75961;SHT30;64644;48.914;2.254;2023-06-14T06:11:28;22.48;55.02
75961;SHT30;64644;48.914;2.254;2023-06-14T06:13:53;22.52;54.76
75961;SHT30;64644;48.914;2.254;2023-06-14T06:16:18;22.55;55.08
75961;SHT30;64644;48.914;2.254;2023-06-14T06:18:44;22.59;55.30
75961;SHT30;64644;48.914;2.254;2023-06-14T06:21:09;22.69;55.29
75961;SHT30;64644;48.914;2.254;2023-06-14T06:23:34;22.69;54.91
75961;SHT30;64644;48.914;2.254;2023-06-14T06:26:00;22.75;54.63
75961;SHT30;64644;48.914;2.254;2023-06-14T06:28:26;22.79;54.61
75961;SHT30;64644;48.914;2.254;2023-06-14T06:30:51;22.85;54.06
75961;SHT30;64644;48.914;2.254;2023-06-14T06:33:17;22.89;54.00
75961;SHT30;64644;48.914;2.254;2023-06-14T06:35:42;22.93;53.78
75961;SHT30;64644;48.914;2.254;2023-06-14T06:38:08;23.00;53.75
75961;SHT30;64644;48.914;2.254;2023-06-14T06:40:35;23.03;54.05
75961;SHT30;64644;48.914;2.254;2023-06-14T06:43:01;23.07;54.12
75961;SHT30;64644;48.914;2.254;2023-06-14T06:45:27;23.11;54.14
75961;SHT30;64644;48.914;2.254;2023-06-14T06:47:53;23.18;53.78
75961;SHT30;64644;48.914;2.254;2023-06-14T06:50:18;23.21;54.08
75961;SHT30;64644;48.914;2.254;2023-06-14T06:52:45;23.24;53.84
75961;SHT30;64644;48.914;2.254;2023-06-14T06:55:10;23.30;53.76
75961;SHT30;64644;48.914;2.254;2023-06-14T06:57:36;23.34;53.03
75961;SHT30;64644;48.914;2.254;2023-06-14T07:00:02;23.35;52.24
75961;SHT30;64644;48.914;2.254;2023-06-14T07:02:29;23.41;51.89
75961;SHT30;64644;48.914;2.254;2023-06-14T07:04:56;23.45;51.92
75961;SHT30;64644;48.914;2.254;2023-06-14T07:07:21;23.49;51.89
75961;SHT30;64644;48.914;2.254;2023-06-14T07:09:46;23.52;52.12
75961;SHT30;64644;48.914;2.254;2023-06-14T07:12:12;23.56;52.21
75961;SHT30;64644;48.914;2.254;2023-06-14T07:14:37;23.61;52.25
75961;SHT30;64644;48.914;2.254;2023-06-14T07:17:03;23.63;52.49
75961;SHT30;64644;48.914;2.254;2023-06-14T07:19:28;23.66;52.57
75961;SHT30;64644;48.914;2.254;2023-06-14T07:21:54;23.70;52.19
75961;SHT30;64644;48.914;2.254;2023-06-14T07:24:19;23.76;52.25
75961;SHT30;64644;48.914;2.254;2023-06-14T07:26:46;23.77;52.12
75961;SHT30;64644;48.914;2.254;2023-06-14T07:29:13;23.82;52.39
75961;SHT30;64644;48.914;2.254;2023-06-14T07:31:38;23.89;51.19
75961;SHT30;64644;48.914;2.254;2023-06-14T07:34:03;23.93;51.72
75961;SHT30;64644;48.914;2.254;2023-06-14T07:36:29;23.94;52.12
75961;SHT30;64644;48.914;2.254;2023-06-14T07:38:54;23.97;51.28
75961;SHT30;64644;48.914;2.254;2023-06-14T07:41:20;24.03;52.20
75961;SHT30;64644;48.914;2.254;2023-06-14T07:43:45;24.09;51.35
75961;SHT30;64644;48.914;2.254;2023-06-14T07:46:10;24.14;50.31
75961;SHT30;64644;48.914;2.254;2023-06-14T07:48:36;24.17;50.38
75961;SHT30;64644;48.914;2.254;2023-06-14T07:51:01;24.18;51.38
75961;SHT30;64644;48.914;2.254;2023-06-14T07:53:27;24.27;51.55
75961;SHT30;64644;48.914;2.254;2023-06-14T07:55:52;24.32;50.25
75961;SHT30;64644;48.914;2.254;2023-06-14T07:58:18;24.34;50.36
75961;SHT30;64644;48.914;2.254;2023-06-14T08:00:43;24.42;50.94
75961;SHT30;64644;48.914;2.254;2023-06-14T08:03:09;24.45;51.33
75961;SHT30;64644;48.914;2.254;2023-06-14T08:05:34;24.52;52.03
75961;SHT30;64644;48.914;2.254;2023-06-14T08:08:00;24.55;52.08
75961;SHT30;64644;48.914;2.254;2023-06-14T08:10:25;24.59;52.65
75961;SHT30;64644;48.914;2.254;2023-06-14T08:12:51;24.65;53.19
75961;SHT30;64644;48.914;2.254;2023-06-14T08:15:17;24.71;52.98
75961;SHT30;64644;48.914;2.254;2023-06-14T08:17:43;24.75;52.55
75961;SHT30;64644;48.914;2.254;2023-06-14T08:20:09;24.80;51.12
75961;SHT30;64644;48.914;2.254;2023-06-14T08:22:35;24.87;51.61
75961;SHT30;64644;48.914;2.254;2023-06-14T08:25:01;24.96;51.70
75961;SHT30;64644;48.914;2.254;2023-06-14T08:27:27;24.99;52.38
75961;SHT30;64644;48.914;2.254;2023-06-14T08:29:52;25.06;52.25
75961;SHT30;64644;48.914;2.254;2023-06-14T08:32:18;25.13;52.40
75961;SHT30;64644;48.914;2.254;2023-06-14T08:34:43;25.18;52.20
75961;SHT30;64644;48.914;2.254;2023-06-14T08:37:09;25.27;52.44
75961;SHT30;64644;48.914;2.254;2023-06-14T08:39:34;25.34;52.65
75961;SHT30;64644;48.914;2.254;2023-06-14T08:42:01;25.41;53.09
75961;SHT30;64644;48.914;2.254;2023-06-14T08:44:27;25.45;53.07
75961;SHT30;64644;48.914;2.254;2023-06-14T08:46:55;25.55;53.50
75961;SHT30;64644;48.914;2.254;2023-06-14T08:49:22;25.61;53.56
75961;SHT30;64644;48.914;2.254;2023-06-14T08:51:56;25.68;50.37
75961;SHT30;64644;48.914;2.254;2023-06-14T08:54:22;25.75;49.97
75961;SHT30;64644;48.914;2.254;2023-06-14T08:56:49;25.85;49.24
75961;SHT30;64644;48.914;2.254;2023-06-14T08:59:17;25.90;49.72
75961;SHT30;64644;48.914;2.254;2023-06-14T09:01:44;25.98;49.63
75961;SHT30;64644;48.914;2.254;2023-06-14T09:04:10;26.04;49.33
75961;SHT30;64644;48.914;2.254;2023-06-14T09:06:36;26.11;49.80
75961;SHT30;64644;48.914;2.254;2023-06-14T09:09:02;26.21;49.01
75961;SHT30;64644;48.914;2.254;2023-06-14T09:11:30;26.25;48.35
75961;SHT30;64644;48.914;2.254;2023-06-14T09:13:56;26.34;47.51
75961;SHT30;64644;48.914;2.254;2023-06-14T09:16:21;26.42;47.31
75961;SHT30;64644;48.914;2.254;2023-06-14T09:18:47;26.49;48.30
75961;SHT30;64644;48.914;2.254;2023-06-14T09:21:14;26.58;48.71
75961;SHT30;64644;48.914;2.254;2023-06-14T09:23:41;26.65;47.86
75961;SHT30;64644;48.914;2.254;2023-06-14T09:26:12;26.76;47.82
75961;SHT30;64644;48.914;2.254;2023-06-14T09:28:44;26.82;48.31
75961;SHT30;64644;48.914;2.254;2023-06-14T09:31:11;26.90;47.98
75961;SHT30;64644;48.914;2.254;2023-06-14T09:33:37;26.96;47.20
75961;SHT30;64644;48.914;2.254;2023-06-14T09:36:04;27.03;45.02
75961;SHT30;64644;48.914;2.254;2023-06-14T09:38:30;27.10;42.39
75961;SHT30;64644;48.914;2.254;2023-06-14T09:40:58;27.20;43.29
75961;SHT30;64644;48.914;2.254;2023-06-14T09:43:24;27.28;44.76
75961;SHT30;64644;48.914;2.254;2023-06-14T09:45:52;27.35;44.40
75961;SHT30;64644;48.914;2.254;2023-06-14T09:48:19;27.44;44.46
75961;SHT30;64644;48.914;2.254;2023-06-14T09:50:50;27.49;44.05
75961;SHT30;64644;48.914;2.254;2023-06-14T09:53:15;27.49;43.49
75961;SHT30;64644;48.914;2.254;2023-06-14T09:55:41;27.54;41.69
75961;SHT30;64644;48.914;2.254;2023-06-14T09:58:08;27.59;43.49
75961;SHT30;64644;48.914;2.254;2023-06-14T10:00:36;27.69;42.62
75961;SHT30;64644;48.914;2.254;2023-06-14T10:03:13;27.74;43.79
75961;SHT30;64644;48.914;2.254;2023-06-14T10:05:41;27.86;43.09
75961;SHT30;64644;48.914;2.254;2023-06-14T10:08:09;28.00;42.66
75961;SHT30;64644;48.914;2.254;2023-06-14T10:10:37;28.10;43.61
75961;SHT30;64644;48.914;2.254;2023-06-14T10:13:03;28.25;41.10
75961;SHT30;64644;48.914;2.254;2023-06-14T10:16:00;28.33;42.02
75961;SHT30;64644;48.914;2.254;2023-06-14T10:21:18;28.52;40.69
75961;SHT30;64644;48.914;2.254;2023-06-14T10:23:47;28.61;41.50
75961;SHT30;64644;48.914;2.254;2023-06-14T10:26:22;28.75;41.63
75961;SHT30;64644;48.914;2.254;2023-06-14T10:29:15;28.84;41.17
75961;SHT30;64644;48.914;2.254;2023-06-14T10:31:42;28.90;40.62
75961;SHT30;64644;48.914;2.254;2023-06-14T10:34:09;28.95;40.60
75961;SHT30;64644;48.914;2.254;2023-06-14T10:36:34;28.96;41.24
75961;SHT30;64644;48.914;2.254;2023-06-14T10:39:16;28.95;40.28
75961;SHT30;64644;48.914;2.254;2023-06-14T10:41:50;28.99;39.41
75961;SHT30;64644;48.914;2.254;2023-06-14T10:46:49;29.13;37.75
75961;SHT30;64644;48.914;2.254;2023-06-14T10:49:19;29.23;38.39
75961;SHT30;64644;48.914;2.254;2023-06-14T10:51:50;29.34;38.99
75961;SHT30;64644;48.914;2.254;2023-06-14T10:54:16;29.41;38.62
75961;SHT30;64644;48.914;2.254;2023-06-14T10:56:52;29.51;38.07
75961;SHT30;64644;48.914;2.254;2023-06-14T10:59:19;29.59;39.02
75961;SHT30;64644;48.914;2.254;2023-06-14T11:04:20;29.68;37.01
75961;SHT30;64644;48.914;2.254;2023-06-14T11:06:50;29.79;37.31
75961;SHT30;64644;48.914;2.254;2023-06-14T11:12:03;29.82;38.20
75961;SHT30;64644;48.914;2.254;2023-06-14T11:14:32;29.86;38.49
75961;SHT30;64644;48.914;2.254;2023-06-14T11:16:57;29.89;38.54
75961;SHT30;64644;48.914;2.254;2023-06-14T11:19:23;29.94;36.64
75961;SHT30;64644;48.914;2.254;2023-06-14T11:21:49;29.99;36.43
75961;SHT30;64644;48.914;2.254;2023-06-14T11:24:16;30.09;36.65
75961;SHT30;64644;48.914;2.254;2023-06-14T11:26:42;30.11;36.50
75961;SHT30;64644;48.914;2.254;2023-06-14T11:29:08;30.20;36.65
75961;SHT30;64644;48.914;2.254;2023-06-14T11:31:33;30.28;36.37
75961;SHT30;64644;48.914;2.254;2023-06-14T11:33:59;30.37;35.50
75961;SHT30;64644;48.914;2.254;2023-06-14T11:36:29;30.48;36.18
75961;SHT30;64644;48.914;2.254;2023-06-14T11:39:00;30.54;34.59
75961;SHT30;64644;48.914;2.254;2023-06-14T11:41:25;30.64;33.47
75961;SHT30;64644;48.914;2.254;2023-06-14T11:43:53;30.71;34.65
75961;SHT30;64644;48.914;2.254;2023-06-14T11:46:19;30.82;35.46
75961;SHT30;64644;48.914;2.254;2023-06-14T11:48:49;30.92;34.68
75961;SHT30;64644;48.914;2.254;2023-06-14T11:51:14;30.99;33.75
75961;SHT30;64644;48.914;2.254;2023-06-14T11:53:40;31.07;34.73
75961;SHT30;64644;48.914;2.254;2023-06-14T11:56:07;31.17;34.46
75961;SHT30;64644;48.914;2.254;2023-06-14T11:58:33;31.30;34.21
75961;SHT30;64644;48.914;2.254;2023-06-14T12:00:58;31.37;34.99
75961;SHT30;64644;48.914;2.254;2023-06-14T12:03:24;31.38;34.27
75961;SHT30;64644;48.914;2.254;2023-06-14T12:06:01;31.46;33.95
75961;SHT30;64644;48.914;2.254;2023-06-14T12:08:32;31.54;33.71
75961;SHT30;64644;48.914;2.254;2023-06-14T12:11:03;31.59;32.53
75961;SHT30;64644;48.914;2.254;2023-06-14T12:13:29;31.65;32.93
75961;SHT30;64644;48.914;2.254;2023-06-14T12:15:56;31.66;32.85
75961;SHT30;64644;48.914;2.254;2023-06-14T12:18:34;31.73;32.58
75961;SHT30;64644;48.914;2.254;2023-06-14T12:21:00;31.82;32.96
75961;SHT30;64644;48.914;2.254;2023-06-14T12:23:49;31.90;33.09
75961;SHT30;64644;48.914;2.254;2023-06-14T12:26:18;32.02;34.24
75961;SHT30;64644;48.914;2.254;2023-06-14T12:28:46;32.06;32.45
75961;SHT30;64644;48.914;2.254;2023-06-14T12:31:12;32.13;33.31
75961;SHT30;64644;48.914;2.254;2023-06-14T12:33:39;32.12;32.76
75961;SHT30;64644;48.914;2.254;2023-06-14T12:36:06;32.13;33.03
75961;SHT30;64644;48.914;2.254;2023-06-14T12:38:32;32.14;32.70
75961;SHT30;64644;48.914;2.254;2023-06-14T12:40:58;32.24;33.82
75961;SHT30;64644;48.914;2.254;2023-06-14T12:43:23;32.16;33.95
75961;SHT30;64644;48.914;2.254;2023-06-14T12:45:49;31.88;35.98
75961;SHT30;64644;48.914;2.254;2023-06-14T12:48:14;31.61;34.46
75961;SHT30;64644;48.914;2.254;2023-06-14T12:50:40;31.38;35.43
75961;SHT30;64644;48.914;2.254;2023-06-14T12:53:06;31.37;35.48
75961;SHT30;64644;48.914;2.254;2023-06-14T12:55:32;31.45;34.09
75961;SHT30;64644;48.914;2.254;2023-06-14T12:57:57;31.62;34.06
75961;SHT30;64644;48.914;2.254;2023-06-14T13:00:25;31.79;34.50
75961;SHT30;64644;48.914;2.254;2023-06-14T13:02:51;32.00;34.63
75961;SHT30;64644;48.914;2.254;2023-06-14T13:05:17;32.09;33.93
75961;SHT30;64644;48.914;2.254;2023-06-14T13:07:42;32.17;33.31
75961;SHT30;64644;48.914;2.254;2023-06-14T13:10:08;32.24;34.69
75961;SHT30;64644;48.914;2.254;2023-06-14T13:12:33;32.35;34.95
75961;SHT30;64644;48.914;2.254;2023-06-14T13:14:59;32.45;34.63
75961;SHT30;64644;48.914;2.254;2023-06-14T13:17:24;32.58;33.80
75961;SHT30;64644;48.914;2.254;2023-06-14T13:19:50;32.66;33.81
75961;SHT30;64644;48.914;2.254;2023-06-14T13:22:15;32.78;33.89
75961;SHT30;64644;48.914;2.254;2023-06-14T13:24:40;32.83;32.59
75961;SHT30;64644;48.914;2.254;2023-06-14T13:27:06;32.87;32.00
75961;SHT30;64644;48.914;2.254;2023-06-14T13:29:32;32.90;32.69
75961;SHT30;64644;48.914;2.254;2023-06-14T13:31:58;32.89;33.23
75961;SHT30;64644;48.914;2.254;2023-06-14T13:34:24;32.89;32.90
75961;SHT30;64644;48.914;2.254;2023-06-14T13:36:49;32.92;32.05
75961;SHT30;64644;48.914;2.254;2023-06-14T13:39:14;32.99;31.65
75961;SHT30;64644;48.914;2.254;2023-06-14T13:41:40;33.03;32.20
75961;SHT30;64644;48.914;2.254;2023-06-14T13:44:05;33.00;31.73
75961;SHT30;64644;48.914;2.254;2023-06-14T13:46:30;33.02;32.15
75961;SHT30;64644;48.914;2.254;2023-06-14T13:48:56;33.04;30.92
75961;SHT30;64644;48.914;2.254;2023-06-14T13:51:23;33.04;31.64
75961;SHT30;64644;48.914;2.254;2023-06-14T13:53:49;33.04;31.63
75961;SHT30;64644;48.914;2.254;2023-06-14T13:56:15;32.95;31.85
75961;SHT30;64644;48.914;2.254;2023-06-14T13:58:40;32.92;32.10
75961;SHT30;64644;48.914;2.254;2023-06-14T14:01:06;32.64;32.06
75961;SHT30;64644;48.914;2.254;2023-06-14T14:03:32;32.35;31.85
75961;SHT30;64644;48.914;2.254;2023-06-14T14:05:58;32.35;32.18
75961;SHT30;64644;48.914;2.254;2023-06-14T14:08:23;32.42;33.01
75961;SHT30;64644;48.914;2.254;2023-06-14T14:10:49;32.51;33.14
75961;SHT30;64644;48.914;2.254;2023-06-14T14:13:15;32.52;32.47
75961;SHT30;64644;48.914;2.254;2023-06-14T14:15:40;32.54;32.11
75961;SHT30;64644;48.914;2.254;2023-06-14T14:18:05;32.52;32.41
75961;SHT30;64644;48.914;2.254;2023-06-14T14:20:31;32.55;31.66
75961;SHT30;64644;48.914;2.254;2023-06-14T14:22:56;32.54;32.02
75961;SHT30;64644;48.914;2.254;2023-06-14T14:25:21;32.58;32.44
75961;SHT30;64644;48.914;2.254;2023-06-14T14:27:47;32.58;31.98
75961;SHT30;64644;48.914;2.254;2023-06-14T14:30:13;32.57;31.04
75961;SHT30;64644;48.914;2.254;2023-06-14T14:32:39;32.58;32.48
75961;SHT30;64644;48.914;2.254;2023-06-14T14:35:06;32.57;33.70
75961;SHT30;64644;48.914;2.254;2023-06-14T14:37:31;32.48;31.97
75961;SHT30;64644;48.914;2.254;2023-06-14T14:39:57;32.41;32.15
75961;SHT30;64644;48.914;2.254;2023-06-14T14:42:22;32.42;32.99
75961;SHT30;64644;48.914;2.254;2023-06-14T14:44:47;32.41;32.71
75961;SHT30;64644;48.914;2.254;2023-06-14T14:47:13;32.35;33.70
75961;SHT30;64644;48.914;2.254;2023-06-14T14:49:38;32.31;33.99
75961;SHT30;64644;48.914;2.254;2023-06-14T14:52:04;32.25;34.07
75961;SHT30;64644;48.914;2.254;2023-06-14T14:54:29;32.20;35.26
75961;SHT30;64644;48.914;2.254;2023-06-14T14:56:55;32.10;34.63
75961;SHT30;64644;48.914;2.254;2023-06-14T14:59:20;32.02;33.12
75961;SHT30;64644;48.914;2.254;2023-06-14T15:01:47;31.89;34.71
75961;SHT30;64644;48.914;2.254;2023-06-14T15:04:12;31.76;33.57
75961;SHT30;64644;48.914;2.254;2023-06-14T15:06:38;31.65;34.76
75961;SHT30;64644;48.914;2.254;2023-06-14T15:09:05;31.61;33.99
75961;SHT30;64644;48.914;2.254;2023-06-14T15:11:31;31.44;34.80
75961;SHT30;64644;48.914;2.254;2023-06-14T15:13:56;31.26;34.44
75961;SHT30;64644;48.914;2.254;2023-06-14T15:16:21;31.10;34.09
75961;SHT30;64644;48.914;2.254;2023-06-14T15:18:47;30.94;33.13
75961;SHT30;64644;48.914;2.254;2023-06-14T15:21:13;30.80;33.89
75961;SHT30;64644;48.914;2.254;2023-06-14T15:23:38;30.71;34.65
75961;SHT30;64644;48.914;2.254;2023-06-14T15:26:04;30.64;35.31
75961;SHT30;64644;48.914;2.254;2023-06-14T15:28:29;30.55;35.05
75961;SHT30;64644;48.914;2.254;2023-06-14T15:31:01;30.47;36.56
75961;SHT30;64644;48.914;2.254;2023-06-14T15:33:26;30.38;37.67
75961;SHT30;64644;48.914;2.254;2023-06-14T15:35:51;30.32;35.20